FFT3499 KATL-KMCI
Flight info
| Callsign | FFT3499 |
|---|---|
| Flight time | 1h 46m |
| Altitude | 30000 |
| Route | CUTTN2 HANKO MEMFS LUKKY J41 ZAVEL KRTNY MHOMS3 |
| Aircraft | A320/M-SDE3FGHIRWY/LB1 |
Departure
| Time | 2026-05-04 19:42 |
|---|---|
| Airport | Hartsfield Jackson Atlanta International Airport (KATL) |
Arrival
| Time | 2026-05-04 21:29 |
|---|---|
| Airport | Kansas City International Airport (KMCI) |
| Time | Latitude | Longitude | Altitude | Speed | Heading |
|---|---|---|---|---|---|
| 2026-05-04 19:08 | 33.63833 | -84.42635 | 1007 ft | 0 kts | 89° |
| 2026-05-04 19:32 | 33.63833 | -84.42644 | 1006 ft | 4 kts | 89° |
| 2026-05-04 19:33 | 33.63832 | -84.42676 | 1006 ft | 4 kts | 89° |
| 2026-05-04 19:33 | 33.63832 | -84.42704 | 1006 ft | 4 kts | 86° |
| 2026-05-04 19:33 | 33.63825 | -84.42729 | 1006 ft | 4 kts | 25° |
| 2026-05-04 19:33 | 33.63800 | -84.42733 | 1006 ft | 4 kts | 358° |
| 2026-05-04 19:34 | 33.63792 | -84.42733 | 1006 ft | 0 kts | 360° |
| 2026-05-04 19:35 | 33.63799 | -84.42733 | 1006 ft | 6 kts | 360° |
| 2026-05-04 19:36 | 33.63875 | -84.42733 | 1006 ft | 11 kts | 360° |
| 2026-05-04 19:36 | 33.63949 | -84.42733 | 1006 ft | 10 kts | 360° |
| 2026-05-04 19:36 | 33.64013 | -84.42733 | 1006 ft | 8 kts | 0° |
| 2026-05-04 19:36 | 33.64075 | -84.42733 | 1006 ft | 10 kts | 360° |
| 2026-05-04 19:37 | 33.64149 | -84.42734 | 1006 ft | 12 kts | 359° |
| 2026-05-04 19:37 | 33.64243 | -84.42734 | 1006 ft | 16 kts | 0° |
| 2026-05-04 19:37 | 33.64381 | -84.42736 | 1006 ft | 21 kts | 358° |
| 2026-05-04 19:37 | 33.64489 | -84.42761 | 1006 ft | 13 kts | 340° |
| 2026-05-04 19:38 | 33.64543 | -84.42712 | 1006 ft | 11 kts | 84° |
| 2026-05-04 19:38 | 33.64541 | -84.42627 | 1006 ft | 11 kts | 90° |
| 2026-05-04 19:38 | 33.64542 | -84.42541 | 1006 ft | 10 kts | 88° |
| 2026-05-04 19:38 | 33.64542 | -84.42460 | 1006 ft | 13 kts | 90° |
| 2026-05-04 19:39 | 33.64542 | -84.42281 | 1006 ft | 25 kts | 90° |
| 2026-05-04 19:39 | 33.64542 | -84.42069 | 1006 ft | 26 kts | 90° |
| 2026-05-04 19:39 | 33.64542 | -84.41849 | 1006 ft | 27 kts | 90° |
| 2026-05-04 19:39 | 33.64542 | -84.41629 | 1007 ft | 26 kts | 89° |
| 2026-05-04 19:40 | 33.64542 | -84.41404 | 1007 ft | 27 kts | 90° |
| 2026-05-04 19:40 | 33.64544 | -84.41173 | 1007 ft | 28 kts | 87° |
| 2026-05-04 19:40 | 33.64543 | -84.40946 | 1006 ft | 23 kts | 89° |
| 2026-05-04 19:40 | 33.64561 | -84.40785 | 1006 ft | 16 kts | 71° |
| 2026-05-04 19:41 | 33.64570 | -84.40659 | 1005 ft | 14 kts | 89° |
| 2026-05-04 19:41 | 33.64604 | -84.40572 | 1005 ft | 11 kts | 29° |
| 2026-05-04 19:41 | 33.64667 | -84.40596 | 1004 ft | 10 kts | 308° |
| 2026-05-04 19:41 | 33.64679 | -84.40667 | 1004 ft | 8 kts | 270° |
| 2026-05-04 19:42 | 33.64679 | -84.40853 | 1006 ft | 56 kts | 270° |
| 2026-05-04 19:42 | 33.64681 | -84.41659 | 1007 ft | 134 kts | 270° |
| 2026-05-04 19:42 | 33.64675 | -84.43012 | 1178 ft | 178 kts | 271° |
| 2026-05-04 19:42 | 33.64722 | -84.44565 | 1945 ft | 197 kts | 268° |
| 2026-05-04 19:43 | 33.64828 | -84.46313 | 2658 ft | 223 kts | 276° |
| 2026-05-04 19:43 | 33.65114 | -84.48242 | 3242 ft | 247 kts | 280° |
| 2026-05-04 19:43 | 33.65485 | -84.50330 | 3801 ft | 262 kts | 281° |
| 2026-05-04 19:43 | 33.65892 | -84.52480 | 4687 ft | 267 kts | 282° |
| 2026-05-04 19:44 | 33.66308 | -84.54672 | 5535 ft | 270 kts | 281° |
| 2026-05-04 19:44 | 33.66725 | -84.56881 | 6400 ft | 273 kts | 281° |
| 2026-05-04 19:44 | 33.67141 | -84.59126 | 7201 ft | 277 kts | 280° |
| 2026-05-04 19:44 | 33.67542 | -84.61402 | 7995 ft | 281 kts | 279° |
| 2026-05-04 19:45 | 33.67930 | -84.63688 | 8784 ft | 284 kts | 279° |
| 2026-05-04 19:45 | 33.68323 | -84.66032 | 9588 ft | 288 kts | 278° |
| 2026-05-04 19:45 | 33.68720 | -84.68412 | 10312 ft | 295 kts | 278° |
| 2026-05-04 19:45 | 33.69137 | -84.70923 | 10567 ft | 318 kts | 279° |
| 2026-05-04 19:46 | 33.69587 | -84.73627 | 10755 ft | 341 kts | 279° |
| 2026-05-04 19:46 | 33.70119 | -84.76468 | 11159 ft | 355 kts | 285° |
| 2026-05-04 19:46 | 33.70897 | -84.79301 | 11834 ft | 359 kts | 287° |
| 2026-05-04 19:46 | 33.71678 | -84.82153 | 12574 ft | 361 kts | 287° |
| 2026-05-04 19:47 | 33.72456 | -84.85030 | 13343 ft | 362 kts | 287° |
| 2026-05-04 19:47 | 33.73233 | -84.87922 | 14079 ft | 364 kts | 287° |
| 2026-05-04 19:47 | 33.74009 | -84.90820 | 14733 ft | 366 kts | 287° |
| 2026-05-04 19:47 | 33.74783 | -84.93704 | 15363 ft | 368 kts | 287° |
| 2026-05-04 19:48 | 33.75574 | -84.96645 | 15970 ft | 370 kts | 287° |
| 2026-05-04 19:48 | 33.76365 | -84.99593 | 16590 ft | 372 kts | 286° |
| 2026-05-04 19:48 | 33.77164 | -85.02574 | 17198 ft | 374 kts | 286° |
| 2026-05-04 19:48 | 33.77962 | -85.05560 | 17787 ft | 377 kts | 286° |
| 2026-05-04 19:49 | 33.78767 | -85.08573 | 18354 ft | 380 kts | 286° |
| 2026-05-04 19:49 | 33.79575 | -85.11603 | 18848 ft | 382 kts | 286° |
| 2026-05-04 19:49 | 33.80387 | -85.14647 | 19369 ft | 383 kts | 286° |
| 2026-05-04 19:49 | 33.81194 | -85.17671 | 19866 ft | 385 kts | 286° |
| 2026-05-04 19:50 | 33.81835 | -85.20791 | 20376 ft | 384 kts | 277° |
| 2026-05-04 19:50 | 33.82051 | -85.23998 | 20851 ft | 385 kts | 272° |
| 2026-05-04 19:50 | 33.82196 | -85.27220 | 21343 ft | 387 kts | 272° |
| 2026-05-04 19:50 | 33.82341 | -85.30458 | 21829 ft | 388 kts | 272° |
| 2026-05-04 19:51 | 33.82484 | -85.33710 | 22304 ft | 390 kts | 272° |
| 2026-05-04 19:51 | 33.82630 | -85.36985 | 22775 ft | 392 kts | 272° |
| 2026-05-04 19:51 | 33.82772 | -85.40235 | 23227 ft | 394 kts | 272° |
| 2026-05-04 19:51 | 33.82916 | -85.43531 | 23674 ft | 395 kts | 272° |
| 2026-05-04 19:52 | 33.83060 | -85.46839 | 24047 ft | 397 kts | 272° |
| 2026-05-04 19:52 | 33.83207 | -85.50162 | 24413 ft | 398 kts | 272° |
| 2026-05-04 19:52 | 33.83354 | -85.53495 | 24777 ft | 400 kts | 272° |
| 2026-05-04 19:52 | 33.83501 | -85.56838 | 25125 ft | 401 kts | 272° |
| 2026-05-04 19:53 | 33.83646 | -85.60207 | 25467 ft | 403 kts | 272° |
| 2026-05-04 19:53 | 33.83840 | -85.63575 | 25822 ft | 405 kts | 277° |
| 2026-05-04 19:53 | 33.84442 | -85.66894 | 26157 ft | 408 kts | 286° |
| 2026-05-04 19:53 | 33.85363 | -85.70081 | 26489 ft | 410 kts | 288° |
| 2026-05-04 19:54 | 33.86325 | -85.73362 | 26832 ft | 411 kts | 288° |
| 2026-05-04 19:54 | 33.87276 | -85.76611 | 27163 ft | 413 kts | 288° |
| 2026-05-04 19:54 | 33.88217 | -85.79833 | 27475 ft | 414 kts | 288° |
| 2026-05-04 19:54 | 33.89175 | -85.83114 | 27779 ft | 416 kts | 288° |
| 2026-05-04 19:55 | 33.90137 | -85.86418 | 28075 ft | 418 kts | 288° |
| 2026-05-04 19:55 | 33.91098 | -85.89726 | 28360 ft | 420 kts | 288° |
| 2026-05-04 19:55 | 33.92063 | -85.93046 | 28651 ft | 421 kts | 288° |
| 2026-05-04 19:55 | 33.93031 | -85.96379 | 28943 ft | 423 kts | 288° |
| 2026-05-04 19:56 | 33.94001 | -85.99726 | 29269 ft | 423 kts | 288° |
| 2026-05-04 19:56 | 33.94971 | -86.03081 | 29671 ft | 422 kts | 288° |
| 2026-05-04 19:56 | 33.95935 | -86.06418 | 29993 ft | 421 kts | 288° |
| 2026-05-04 19:57 | 33.97840 | -86.13001 | 30041 ft | 416 kts | 288° |
| 2026-05-04 19:57 | 33.99739 | -86.19585 | 30036 ft | 416 kts | 288° |
| 2026-05-04 19:58 | 34.01639 | -86.26193 | 30051 ft | 417 kts | 288° |
| 2026-05-04 19:58 | 34.03530 | -86.32818 | 30045 ft | 417 kts | 288° |
| 2026-05-04 19:59 | 34.05425 | -86.39435 | 30043 ft | 417 kts | 288° |
| 2026-05-04 19:59 | 34.07311 | -86.46049 | 30035 ft | 417 kts | 288° |
| 2026-05-04 20:00 | 34.09196 | -86.52663 | 30033 ft | 417 kts | 288° |
| 2026-05-04 20:00 | 34.11060 | -86.59228 | 30036 ft | 417 kts | 288° |
| 2026-05-04 20:01 | 34.12939 | -86.65850 | 30028 ft | 417 kts | 288° |
| 2026-05-04 20:01 | 34.14810 | -86.72486 | 30024 ft | 417 kts | 288° |
| 2026-05-04 20:02 | 34.16674 | -86.79126 | 30030 ft | 418 kts | 288° |
| 2026-05-04 20:02 | 34.18543 | -86.85773 | 30039 ft | 418 kts | 288° |
| 2026-05-04 20:03 | 34.20417 | -86.92432 | 30034 ft | 418 kts | 288° |
| 2026-05-04 20:03 | 34.22276 | -86.99094 | 30032 ft | 418 kts | 288° |
| 2026-05-04 20:04 | 34.24137 | -87.05762 | 30026 ft | 419 kts | 288° |
| 2026-05-04 20:04 | 34.26006 | -87.12430 | 30018 ft | 419 kts | 288° |
| 2026-05-04 20:05 | 34.27852 | -87.19052 | 30005 ft | 419 kts | 288° |
| 2026-05-04 20:05 | 34.29703 | -87.25740 | 29990 ft | 419 kts | 288° |
| 2026-05-04 20:06 | 34.31546 | -87.32416 | 29992 ft | 419 kts | 288° |
| 2026-05-04 20:06 | 34.33393 | -87.39107 | 29988 ft | 419 kts | 288° |
| 2026-05-04 20:07 | 34.35231 | -87.45795 | 29975 ft | 419 kts | 288° |
| 2026-05-04 20:07 | 34.37072 | -87.52493 | 29977 ft | 419 kts | 288° |
| 2026-05-04 20:08 | 34.38895 | -87.59161 | 29976 ft | 419 kts | 288° |
| 2026-05-04 20:08 | 34.40730 | -87.65875 | 29972 ft | 419 kts | 288° |
| 2026-05-04 20:09 | 34.42558 | -87.72575 | 29978 ft | 419 kts | 288° |
| 2026-05-04 20:09 | 34.44384 | -87.79292 | 29972 ft | 419 kts | 288° |
| 2026-05-04 20:10 | 34.46202 | -87.86010 | 29989 ft | 420 kts | 287° |
| 2026-05-04 20:10 | 34.48025 | -87.92738 | 29978 ft | 420 kts | 288° |
| 2026-05-04 20:11 | 34.49855 | -87.99488 | 29974 ft | 421 kts | 287° |
| 2026-05-04 20:11 | 34.51676 | -88.06243 | 29973 ft | 421 kts | 287° |
| 2026-05-04 20:12 | 34.53494 | -88.12992 | 29973 ft | 421 kts | 288° |
| 2026-05-04 20:12 | 34.55290 | -88.19707 | 29977 ft | 421 kts | 287° |
| 2026-05-04 20:13 | 34.57093 | -88.26460 | 29975 ft | 421 kts | 287° |
| 2026-05-04 20:13 | 34.58886 | -88.33196 | 29975 ft | 421 kts | 287° |
| 2026-05-04 20:14 | 34.60687 | -88.39955 | 29976 ft | 421 kts | 287° |
| 2026-05-04 20:14 | 34.62484 | -88.46718 | 29972 ft | 421 kts | 287° |
| 2026-05-04 20:15 | 34.64274 | -88.53484 | 29988 ft | 420 kts | 287° |
| 2026-05-04 20:15 | 34.66055 | -88.60237 | 29986 ft | 419 kts | 287° |
| 2026-05-04 20:16 | 34.67830 | -88.66979 | 29978 ft | 419 kts | 287° |
| 2026-05-04 20:16 | 34.69598 | -88.73730 | 29975 ft | 419 kts | 287° |
| 2026-05-04 20:17 | 34.71367 | -88.80473 | 29972 ft | 418 kts | 287° |
| 2026-05-04 20:17 | 34.73126 | -88.87212 | 29990 ft | 418 kts | 287° |
| 2026-05-04 20:18 | 34.74881 | -88.93916 | 29976 ft | 417 kts | 287° |
| 2026-05-04 20:18 | 34.76632 | -89.00640 | 29971 ft | 417 kts | 287° |
| 2026-05-04 20:19 | 34.78081 | -89.06231 | 29966 ft | 417 kts | 287° |
| 2026-05-04 20:19 | 34.79818 | -89.12963 | 29960 ft | 417 kts | 287° |
| 2026-05-04 20:20 | 34.81558 | -89.19703 | 29964 ft | 417 kts | 287° |
| 2026-05-04 20:20 | 34.83294 | -89.26442 | 29960 ft | 417 kts | 287° |
| 2026-05-04 20:21 | 34.85018 | -89.33164 | 29971 ft | 415 kts | 287° |
| 2026-05-04 20:21 | 34.87591 | -89.43215 | 29965 ft | 414 kts | 287° |
| 2026-05-04 20:22 | 34.89302 | -89.49916 | 29956 ft | 413 kts | 288° |
| 2026-05-04 20:22 | 34.90999 | -89.56564 | 29953 ft | 413 kts | 287° |
| 2026-05-04 20:23 | 34.92698 | -89.63257 | 29955 ft | 414 kts | 287° |
| 2026-05-04 20:23 | 34.94395 | -89.69959 | 29956 ft | 413 kts | 287° |
| 2026-05-04 20:24 | 34.96087 | -89.76655 | 29956 ft | 413 kts | 287° |
| 2026-05-04 20:24 | 34.97776 | -89.83354 | 29955 ft | 413 kts | 287° |
| 2026-05-04 20:25 | 34.99465 | -89.90064 | 29965 ft | 413 kts | 287° |
| 2026-05-04 20:25 | 35.01298 | -89.96672 | 29947 ft | 414 kts | 295° |
| 2026-05-04 20:26 | 35.04559 | -90.02469 | 29929 ft | 416 kts | 310° |
| 2026-05-04 20:26 | 35.08431 | -90.07726 | 29934 ft | 416 kts | 310° |
| 2026-05-04 20:27 | 35.12289 | -90.12991 | 29934 ft | 415 kts | 310° |
| 2026-05-04 20:27 | 35.16135 | -90.18259 | 29928 ft | 415 kts | 309° |
| 2026-05-04 20:28 | 35.19939 | -90.23490 | 29924 ft | 414 kts | 309° |
| 2026-05-04 20:28 | 35.23765 | -90.28761 | 29920 ft | 414 kts | 309° |
| 2026-05-04 20:29 | 35.27600 | -90.34034 | 29917 ft | 415 kts | 309° |
| 2026-05-04 20:29 | 35.31439 | -90.39321 | 29895 ft | 415 kts | 309° |
| 2026-05-04 20:30 | 35.35260 | -90.44596 | 29920 ft | 413 kts | 309° |
| 2026-05-04 20:30 | 35.39069 | -90.49866 | 29926 ft | 412 kts | 309° |
| 2026-05-04 20:31 | 35.42866 | -90.55132 | 29926 ft | 412 kts | 309° |
| 2026-05-04 20:31 | 35.46660 | -90.60392 | 29920 ft | 411 kts | 309° |
| 2026-05-04 20:32 | 35.50453 | -90.65647 | 29941 ft | 411 kts | 309° |
| 2026-05-04 20:32 | 35.54236 | -90.70913 | 29913 ft | 411 kts | 309° |
| 2026-05-04 20:33 | 35.58023 | -90.76188 | 29900 ft | 412 kts | 309° |
| 2026-05-04 20:33 | 35.61781 | -90.81429 | 29913 ft | 410 kts | 309° |
| 2026-05-04 20:34 | 35.65546 | -90.86695 | 29921 ft | 409 kts | 309° |
| 2026-05-04 20:34 | 35.69295 | -90.91957 | 29919 ft | 409 kts | 309° |
| 2026-05-04 20:35 | 35.73045 | -90.97214 | 29911 ft | 408 kts | 309° |
| 2026-05-04 20:35 | 35.76791 | -91.02468 | 29915 ft | 409 kts | 309° |
| 2026-05-04 20:36 | 35.80545 | -91.07752 | 29904 ft | 409 kts | 309° |
| 2026-05-04 20:36 | 35.84297 | -91.13035 | 29900 ft | 410 kts | 309° |
| 2026-05-04 20:37 | 35.88042 | -91.18318 | 29901 ft | 409 kts | 309° |
| 2026-05-04 20:37 | 35.91752 | -91.23566 | 29912 ft | 407 kts | 309° |
| 2026-05-04 20:38 | 35.95471 | -91.28838 | 29911 ft | 407 kts | 309° |
| 2026-05-04 20:38 | 35.99193 | -91.34106 | 29911 ft | 406 kts | 309° |
| 2026-05-04 20:39 | 36.02900 | -91.39369 | 29898 ft | 406 kts | 309° |
| 2026-05-04 20:39 | 36.06574 | -91.44599 | 29881 ft | 405 kts | 309° |
| 2026-05-04 20:40 | 36.10269 | -91.49850 | 29873 ft | 404 kts | 309° |
| 2026-05-04 20:40 | 36.13953 | -91.55103 | 29874 ft | 403 kts | 309° |
| 2026-05-04 20:41 | 36.17629 | -91.60343 | 29887 ft | 401 kts | 309° |
| 2026-05-04 20:41 | 36.21285 | -91.65555 | 29889 ft | 400 kts | 309° |
| 2026-05-04 20:42 | 36.24925 | -91.70756 | 29881 ft | 399 kts | 309° |
| 2026-05-04 20:42 | 36.28559 | -91.75986 | 29852 ft | 400 kts | 308° |
| 2026-05-04 20:43 | 36.32190 | -91.81219 | 29841 ft | 401 kts | 309° |
| 2026-05-04 20:43 | 36.35810 | -91.86431 | 29827 ft | 401 kts | 309° |
| 2026-05-04 20:44 | 36.39459 | -91.91675 | 29811 ft | 401 kts | 309° |
| 2026-05-04 20:44 | 36.43090 | -91.96907 | 29839 ft | 399 kts | 309° |
| 2026-05-04 20:45 | 36.46702 | -92.02137 | 29831 ft | 398 kts | 309° |
| 2026-05-04 20:45 | 36.50301 | -92.07363 | 29844 ft | 398 kts | 309° |
| 2026-05-04 20:46 | 36.53899 | -92.12599 | 29825 ft | 398 kts | 309° |
| 2026-05-04 20:46 | 36.57502 | -92.17838 | 29805 ft | 399 kts | 309° |
| 2026-05-04 20:47 | 36.61114 | -92.23079 | 29808 ft | 399 kts | 309° |
| 2026-05-04 20:47 | 36.64702 | -92.28299 | 29800 ft | 399 kts | 308° |
| 2026-05-04 20:48 | 36.68301 | -92.33556 | 29798 ft | 398 kts | 309° |
| 2026-05-04 20:48 | 36.71887 | -92.38810 | 29804 ft | 398 kts | 308° |
| 2026-05-04 20:49 | 36.75475 | -92.44069 | 29819 ft | 398 kts | 309° |
| 2026-05-04 20:49 | 36.79057 | -92.49325 | 29802 ft | 398 kts | 308° |
| 2026-05-04 20:50 | 36.82637 | -92.54591 | 29792 ft | 398 kts | 308° |
| 2026-05-04 20:50 | 36.86214 | -92.59866 | 29783 ft | 398 kts | 308° |
| 2026-05-04 20:51 | 36.89793 | -92.65143 | 29781 ft | 397 kts | 309° |
| 2026-05-04 20:51 | 36.93350 | -92.70379 | 29764 ft | 397 kts | 308° |
| 2026-05-04 20:52 | 36.96911 | -92.75654 | 29799 ft | 396 kts | 308° |
| 2026-05-04 20:52 | 37.00467 | -92.80923 | 29785 ft | 396 kts | 309° |
| 2026-05-04 20:53 | 37.04034 | -92.86202 | 29783 ft | 397 kts | 308° |
| 2026-05-04 20:53 | 37.07602 | -92.91494 | 29781 ft | 398 kts | 308° |
| 2026-05-04 20:54 | 37.11162 | -92.96798 | 29776 ft | 397 kts | 308° |
| 2026-05-04 20:54 | 37.14711 | -93.02107 | 29774 ft | 397 kts | 308° |
| 2026-05-04 20:55 | 37.18266 | -93.07418 | 29768 ft | 397 kts | 308° |
| 2026-05-04 20:55 | 37.21796 | -93.12697 | 29808 ft | 397 kts | 308° |
| 2026-05-04 20:56 | 37.25333 | -93.18009 | 29813 ft | 396 kts | 308° |
| 2026-05-04 20:56 | 37.28875 | -93.23312 | 29767 ft | 396 kts | 308° |
| 2026-05-04 20:57 | 37.32411 | -93.28617 | 29762 ft | 396 kts | 308° |
| 2026-05-04 20:57 | 37.36336 | -93.33453 | 29754 ft | 400 kts | 322° |
| 2026-05-04 20:58 | 37.41344 | -93.36632 | 29745 ft | 406 kts | 331° |
| 2026-05-04 20:58 | 37.46512 | -93.39499 | 29752 ft | 406 kts | 331° |
| 2026-05-04 20:59 | 37.51675 | -93.42381 | 29731 ft | 406 kts | 331° |
| 2026-05-04 20:59 | 37.56809 | -93.45264 | 29729 ft | 406 kts | 331° |
| 2026-05-04 21:00 | 37.61972 | -93.48175 | 29738 ft | 406 kts | 331° |
| 2026-05-04 21:00 | 37.67144 | -93.51076 | 29750 ft | 407 kts | 331° |
| 2026-05-04 21:01 | 37.72322 | -93.53977 | 29727 ft | 408 kts | 331° |
| 2026-05-04 21:01 | 37.77512 | -93.56898 | 29719 ft | 409 kts | 331° |
| 2026-05-04 21:02 | 37.82715 | -93.59848 | 29714 ft | 409 kts | 331° |
| 2026-05-04 21:02 | 37.87918 | -93.62803 | 29711 ft | 410 kts | 331° |
| 2026-05-04 21:03 | 37.93123 | -93.65788 | 29706 ft | 412 kts | 330° |
| 2026-05-04 21:03 | 37.95699 | -93.67270 | 29582 ft | 414 kts | 331° |
| 2026-05-04 21:03 | 37.98336 | -93.68741 | 29299 ft | 415 kts | 332° |
| 2026-05-04 21:04 | 38.00989 | -93.70187 | 29018 ft | 416 kts | 332° |
| 2026-05-04 21:04 | 38.03655 | -93.71624 | 28742 ft | 417 kts | 332° |
| 2026-05-04 21:04 | 38.06336 | -93.73070 | 28467 ft | 418 kts | 332° |
| 2026-05-04 21:04 | 38.09012 | -93.74522 | 28190 ft | 419 kts | 332° |
| 2026-05-04 21:05 | 38.11676 | -93.75978 | 27675 ft | 415 kts | 332° |
| 2026-05-04 21:05 | 38.14310 | -93.77437 | 26936 ft | 412 kts | 331° |
| 2026-05-04 21:05 | 38.16927 | -93.78919 | 26185 ft | 410 kts | 331° |
| 2026-05-04 21:05 | 38.19514 | -93.80403 | 25471 ft | 407 kts | 331° |
| 2026-05-04 21:06 | 38.22094 | -93.81884 | 24764 ft | 405 kts | 331° |
| 2026-05-04 21:06 | 38.24657 | -93.83351 | 24068 ft | 403 kts | 331° |
| 2026-05-04 21:06 | 38.27213 | -93.84809 | 23387 ft | 402 kts | 331° |
| 2026-05-04 21:06 | 38.29759 | -93.86260 | 22641 ft | 400 kts | 331° |
| 2026-05-04 21:07 | 38.31434 | -93.87216 | 22217 ft | 397 kts | 331° |
| 2026-05-04 21:07 | 38.33937 | -93.88642 | 21581 ft | 392 kts | 331° |
| 2026-05-04 21:07 | 38.36417 | -93.90056 | 20987 ft | 389 kts | 331° |
| 2026-05-04 21:07 | 38.38875 | -93.91457 | 20399 ft | 385 kts | 331° |
| 2026-05-04 21:08 | 38.41314 | -93.92844 | 19829 ft | 381 kts | 331° |
| 2026-05-04 21:08 | 38.43724 | -93.94215 | 19291 ft | 378 kts | 331° |
| 2026-05-04 21:08 | 38.46113 | -93.95580 | 18768 ft | 374 kts | 331° |
| 2026-05-04 21:08 | 38.48480 | -93.96936 | 18277 ft | 371 kts | 331° |
| 2026-05-04 21:09 | 38.50819 | -93.98277 | 17753 ft | 368 kts | 331° |
| 2026-05-04 21:09 | 38.53104 | -93.99586 | 17491 ft | 358 kts | 331° |
| 2026-05-04 21:09 | 38.55372 | -94.00884 | 17104 ft | 358 kts | 331° |
| 2026-05-04 21:09 | 38.57639 | -94.02185 | 16637 ft | 356 kts | 331° |
| 2026-05-04 21:10 | 38.59893 | -94.03484 | 16169 ft | 354 kts | 331° |
| 2026-05-04 21:10 | 38.62135 | -94.04778 | 15687 ft | 352 kts | 331° |
| 2026-05-04 21:10 | 38.64362 | -94.06066 | 15205 ft | 350 kts | 331° |
| 2026-05-04 21:10 | 38.66576 | -94.07342 | 14715 ft | 349 kts | 331° |
| 2026-05-04 21:11 | 38.68681 | -94.08840 | 14188 ft | 344 kts | 322° |
| 2026-05-04 21:11 | 38.70549 | -94.10724 | 13684 ft | 341 kts | 316° |
| 2026-05-04 21:11 | 38.72361 | -94.12683 | 13129 ft | 341 kts | 316° |
| 2026-05-04 21:11 | 38.74166 | -94.14630 | 12597 ft | 339 kts | 316° |
| 2026-05-04 21:12 | 38.75970 | -94.16569 | 12059 ft | 337 kts | 316° |
| 2026-05-04 21:12 | 38.77786 | -94.18519 | 11739 ft | 348 kts | 316° |
| 2026-05-04 21:12 | 38.79657 | -94.20535 | 11506 ft | 355 kts | 316° |
| 2026-05-04 21:12 | 38.81550 | -94.22576 | 11245 ft | 355 kts | 316° |
| 2026-05-04 21:13 | 38.83438 | -94.24613 | 10974 ft | 352 kts | 317° |
| 2026-05-04 21:13 | 38.85274 | -94.26589 | 10843 ft | 336 kts | 317° |
| 2026-05-04 21:13 | 38.87023 | -94.28474 | 10704 ft | 322 kts | 316° |
| 2026-05-04 21:13 | 38.88701 | -94.30284 | 10591 ft | 309 kts | 316° |
| 2026-05-04 21:14 | 38.90324 | -94.32032 | 10451 ft | 297 kts | 317° |
| 2026-05-04 21:14 | 38.91900 | -94.33601 | 10209 ft | 285 kts | 319° |
| 2026-05-04 21:14 | 38.93491 | -94.35074 | 9990 ft | 281 kts | 321° |
| 2026-05-04 21:14 | 38.95084 | -94.36515 | 9856 ft | 281 kts | 321° |
| 2026-05-04 21:15 | 38.96690 | -94.37966 | 9736 ft | 281 kts | 320° |
| 2026-05-04 21:15 | 38.98287 | -94.39416 | 9616 ft | 280 kts | 320° |
| 2026-05-04 21:15 | 38.99872 | -94.40868 | 9534 ft | 280 kts | 321° |
| 2026-05-04 21:15 | 39.01452 | -94.42325 | 9429 ft | 279 kts | 320° |
| 2026-05-04 21:16 | 39.03022 | -94.43773 | 9285 ft | 277 kts | 320° |
| 2026-05-04 21:16 | 39.04589 | -94.45222 | 9137 ft | 276 kts | 321° |
| 2026-05-04 21:16 | 39.06141 | -94.46656 | 8944 ft | 274 kts | 321° |
| 2026-05-04 21:16 | 39.07684 | -94.48084 | 8791 ft | 273 kts | 321° |
| 2026-05-04 21:17 | 39.09234 | -94.49487 | 8623 ft | 269 kts | 322° |
| 2026-05-04 21:17 | 39.10752 | -94.50799 | 8471 ft | 253 kts | 323° |
| 2026-05-04 21:17 | 39.12165 | -94.51994 | 8336 ft | 234 kts | 323° |
| 2026-05-04 21:17 | 39.13469 | -94.53098 | 8233 ft | 213 kts | 322° |
| 2026-05-04 21:18 | 39.14652 | -94.54108 | 8104 ft | 198 kts | 322° |
| 2026-05-04 21:18 | 39.15772 | -94.55077 | 7979 ft | 195 kts | 321° |
| 2026-05-04 21:18 | 39.16895 | -94.56054 | 7869 ft | 194 kts | 322° |
| 2026-05-04 21:18 | 39.18010 | -94.57023 | 7756 ft | 191 kts | 322° |
| 2026-05-04 21:19 | 39.19082 | -94.57947 | 7630 ft | 179 kts | 321° |
| 2026-05-04 21:19 | 39.20073 | -94.58798 | 7540 ft | 163 kts | 321° |
| 2026-05-04 21:19 | 39.20988 | -94.59585 | 7471 ft | 153 kts | 321° |
| 2026-05-04 21:19 | 39.21854 | -94.60334 | 7405 ft | 147 kts | 321° |
| 2026-05-04 21:20 | 39.22746 | -94.60982 | 7331 ft | 149 kts | 331° |
| 2026-05-04 21:20 | 39.23740 | -94.61404 | 7271 ft | 152 kts | 343° |
| 2026-05-04 21:20 | 39.24797 | -94.61564 | 7195 ft | 155 kts | 353° |
| 2026-05-04 21:20 | 39.25880 | -94.61443 | 7126 ft | 158 kts | 5° |
| 2026-05-04 21:21 | 39.26942 | -94.61129 | 7060 ft | 158 kts | 8° |
| 2026-05-04 21:21 | 39.28012 | -94.60812 | 6975 ft | 158 kts | 8° |
| 2026-05-04 21:21 | 39.29092 | -94.60494 | 6795 ft | 160 kts | 7° |
| 2026-05-04 21:21 | 39.30167 | -94.60175 | 6575 ft | 158 kts | 9° |
| 2026-05-04 21:22 | 39.31240 | -94.59856 | 6358 ft | 158 kts | 8° |
| 2026-05-04 21:22 | 39.32319 | -94.59538 | 6149 ft | 160 kts | 9° |
| 2026-05-04 21:22 | 39.33406 | -94.59217 | 5927 ft | 160 kts | 10° |
| 2026-05-04 21:22 | 39.34486 | -94.58894 | 5712 ft | 160 kts | 10° |
| 2026-05-04 21:23 | 39.35574 | -94.58572 | 5500 ft | 161 kts | 10° |
| 2026-05-04 21:23 | 39.36670 | -94.58248 | 5288 ft | 161 kts | 11° |
| 2026-05-04 21:23 | 39.37766 | -94.57987 | 5060 ft | 160 kts | 0° |
| 2026-05-04 21:23 | 39.38867 | -94.58041 | 4841 ft | 157 kts | 346° |
| 2026-05-04 21:24 | 39.39914 | -94.58415 | 4635 ft | 155 kts | 333° |
| 2026-05-04 21:24 | 39.40845 | -94.59070 | 4432 ft | 151 kts | 321° |
| 2026-05-04 21:24 | 39.41624 | -94.59956 | 4228 ft | 148 kts | 307° |
| 2026-05-04 21:24 | 39.42226 | -94.61021 | 4041 ft | 145 kts | 294° |
| 2026-05-04 21:25 | 39.42628 | -94.62198 | 3850 ft | 142 kts | 283° |
| 2026-05-04 21:25 | 39.42828 | -94.63436 | 3663 ft | 139 kts | 272° |
| 2026-05-04 21:25 | 39.42831 | -94.64676 | 3482 ft | 138 kts | 261° |
| 2026-05-04 21:25 | 39.42642 | -94.65880 | 3309 ft | 136 kts | 251° |
| 2026-05-04 21:26 | 39.42273 | -94.67009 | 3124 ft | 138 kts | 239° |
| 2026-05-04 21:26 | 39.41730 | -94.68027 | 2944 ft | 137 kts | 228° |
| 2026-05-04 21:26 | 39.41042 | -94.68884 | 2747 ft | 139 kts | 217° |
| 2026-05-04 21:26 | 39.40239 | -94.69538 | 2574 ft | 139 kts | 206° |
| 2026-05-04 21:27 | 39.39346 | -94.69972 | 2387 ft | 136 kts | 197° |
| 2026-05-04 21:27 | 39.38394 | -94.70254 | 2207 ft | 143 kts | 193° |
| 2026-05-04 21:27 | 39.37427 | -94.70523 | 2094 ft | 141 kts | 193° |
| 2026-05-04 21:27 | 39.36462 | -94.70780 | 1914 ft | 141 kts | 195° |
| 2026-05-04 21:28 | 39.35524 | -94.71104 | 1651 ft | 144 kts | 196° |
| 2026-05-04 21:28 | 39.34562 | -94.71377 | 1536 ft | 141 kts | 194° |
| 2026-05-04 21:28 | 39.33589 | -94.71672 | 1364 ft | 144 kts | 195° |
| 2026-05-04 21:28 | 39.32602 | -94.71968 | 1155 ft | 145 kts | 194° |
| 2026-05-04 21:29 | 39.31645 | -94.72249 | 1017 ft | 134 kts | 195° |
| 2026-05-04 21:29 | 39.30906 | -94.72476 | 1013 ft | 58 kts | 192° |
| 2026-05-04 21:29 | 39.30579 | -94.72559 | 1013 ft | 41 kts | 189° |
| 2026-05-04 21:29 | 39.30370 | -94.72524 | 1014 ft | 23 kts | 138° |
| 2026-05-04 21:30 | 39.30266 | -94.72423 | 1014 ft | 19 kts | 129° |
| 2026-05-04 21:30 | 39.30150 | -94.72412 | 1014 ft | 18 kts | 192° |
| 2026-05-04 21:30 | 39.30029 | -94.72450 | 1015 ft | 18 kts | 195° |
| 2026-05-04 21:30 | 39.29894 | -94.72493 | 1015 ft | 21 kts | 193° |
| 2026-05-04 21:31 | 39.29600 | -94.72566 | 1014 ft | 18 kts | 158° |
| 2026-05-04 21:31 | 39.29553 | -94.72417 | 1014 ft | 17 kts | 95° |
| 2026-05-04 21:31 | 39.29579 | -94.72279 | 1014 ft | 15 kts | 59° |
| 2026-05-04 21:32 | 39.29648 | -94.72183 | 1014 ft | 14 kts | 39° |
| 2026-05-04 21:32 | 39.29710 | -94.72126 | 1014 ft | 6 kts | 27° |
| 2026-05-04 21:32 | 39.29746 | -94.72108 | 1014 ft | 5 kts | 32° |
| 2026-05-04 21:32 | 39.29754 | -94.72077 | 1014 ft | 3 kts | 89° |
| 2026-05-04 21:33 | 39.29751 | -94.72057 | 1014 ft | 2 kts | 101° |
| 2026-05-04 21:33 | 39.29749 | -94.72046 | 1014 ft | 0 kts | 102° |